createdAt,value
2019-06-08T00:00:48.855Z,26.70
2019-06-08T00:03:22.650Z,26.80
2019-06-08T00:05:55.750Z,24.13
2019-06-08T00:08:28.634Z,27.60
2019-06-08T00:11:01.725Z,29.70
2019-06-08T00:13:36.361Z,31.63
2019-06-08T00:16:09.129Z,29.00
2019-06-08T00:18:41.804Z,29.13
2019-06-08T00:21:15.505Z,28.90
2019-06-08T00:23:48.606Z,30.43
2019-06-08T00:26:22.078Z,27.70
2019-06-08T00:28:56.010Z,28.07
2019-06-08T00:31:28.992Z,27.40
2019-06-08T00:34:01.982Z,26.43
2019-06-08T00:36:34.864Z,27.17
2019-06-08T00:39:10.410Z,25.63
2019-06-08T00:41:43.087Z,27.47
2019-06-08T00:44:17.049Z,26.27
2019-06-08T00:46:49.880Z,30.03
2019-06-08T00:49:22.741Z,31.63
2019-06-08T00:51:55.548Z,30.37
2019-06-08T00:54:29.755Z,26.63
2019-06-08T00:57:02.749Z,25.30
2019-06-08T00:59:35.327Z,29.20
2019-06-08T01:02:08.415Z,25.93
2019-06-08T01:04:41.006Z,34.27
2019-06-08T01:07:13.879Z,31.00
2019-06-08T01:09:46.972Z,30.03
2019-06-08T01:12:20.491Z,25.33
2019-06-08T01:14:53.964Z,26.27
2019-06-08T01:17:27.459Z,28.60
2019-06-08T01:20:00.345Z,27.03
2019-06-08T01:22:33.128Z,28.23
2019-06-08T01:25:06.851Z,28.87
2019-06-08T01:27:39.509Z,29.23
2019-06-08T01:30:13.009Z,28.20
2019-06-08T01:32:45.685Z,27.43
2019-06-08T01:35:18.678Z,28.60
2019-06-08T01:37:51.216Z,25.63
2019-06-08T01:40:25.293Z,34.10
2019-06-08T01:42:57.853Z,30.07
2019-06-08T01:45:32.926Z,35.43
2019-06-08T01:48:19.230Z,36.83
2019-06-08T01:50:41.920Z,34.93
2019-06-08T01:53:14.905Z,28.83
2019-06-08T01:55:47.789Z,29.57
2019-06-08T01:58:20.469Z,37.13
2019-06-08T02:00:52.703Z,34.50
2019-06-08T02:03:26.257Z,36.00
2019-06-08T02:05:59.128Z,39.87
2019-06-08T02:08:32.645Z,39.00
2019-06-08T02:11:05.672Z,39.57
2019-06-08T02:13:38.804Z,40.87
2019-06-08T02:16:13.625Z,42.50
2019-06-08T02:18:50.768Z,41.03
2019-06-08T02:21:20.631Z,43.80
2019-06-08T02:23:54.944Z,41.20
2019-06-08T02:26:41.415Z,40.07
2019-06-08T02:29:15.869Z,41.73
2019-06-08T02:31:50.285Z,41.73
2019-06-08T02:34:25.137Z,44.50
2019-06-08T02:36:58.306Z,48.40
2019-06-08T02:39:44.914Z,44.17
2019-06-08T02:42:19.228Z,45.00
2019-06-08T02:44:53.037Z,44.90
2019-06-08T02:47:28.428Z,49.47
2019-06-08T02:50:03.521Z,43.77
2019-06-08T02:52:48.335Z,43.10
2019-06-08T02:55:33.062Z,47.13
2019-06-08T02:58:08.991Z,44.73
2019-06-08T03:00:43.722Z,48.10
2019-06-08T03:03:18.822Z,50.63
2019-06-08T03:05:53.183Z,48.40
2019-06-08T03:08:42.104Z,46.43
2019-06-08T03:11:17.477Z,44.93
2019-06-08T03:13:53.919Z,48.57
2019-06-08T03:16:28.777Z,47.20
2019-06-08T03:19:19.919Z,46.00
2019-06-08T03:21:40.598Z,42.10
2019-06-08T03:24:14.574Z,46.50
2019-06-08T03:26:48.916Z,49.37
2019-06-08T03:29:32.535Z,45.43
2019-06-08T03:32:05.657Z,40.63
2019-06-08T03:34:45.979Z,42.27
2019-06-08T03:37:13.149Z,44.87
2019-06-08T03:39:46.137Z,44.40
2019-06-08T03:42:19.121Z,42.17
2019-06-08T03:44:52.013Z,51.03
2019-06-08T03:47:24.705Z,49.73
2019-06-08T03:49:57.897Z,50.97
2019-06-08T03:52:31.076Z,48.80
2019-06-08T03:55:04.053Z,51.53
2019-06-08T03:57:38.203Z,49.43
2019-06-08T04:00:13.626Z,58.17
2019-06-08T04:02:47.717Z,59.60
2019-06-08T04:05:20.509Z,52.73
2019-06-08T04:07:53.124Z,58.07
2019-06-08T04:10:25.970Z,52.90
2019-06-08T04:12:58.952Z,51.23
2019-06-08T04:15:31.839Z,44.97
2019-06-08T04:18:04.721Z,45.13
2019-06-08T04:20:37.982Z,43.17
2019-06-08T04:23:11.217Z,43.63
2019-06-08T04:25:45.048Z,46.67
2019-06-08T04:28:18.727Z,47.03
2019-06-08T04:30:51.708Z,46.87
2019-06-08T04:33:24.691Z,45.00
2019-06-08T04:35:58.801Z,45.13
2019-06-08T04:38:31.587Z,43.70
2019-06-08T04:41:04.134Z,44.87
2019-06-08T04:43:38.476Z,43.83
2019-06-08T04:46:11.362Z,46.00
2019-06-08T04:48:45.351Z,43.73
2019-06-08T04:51:18.804Z,45.37
2019-06-08T04:53:51.651Z,50.30
2019-06-08T04:56:24.329Z,46.97
2019-06-08T04:58:56.618Z,42.53
2019-06-08T05:01:28.851Z,44.10
2019-06-08T05:04:01.159Z,46.07
2019-06-08T05:06:33.825Z,47.73
2019-06-08T05:09:09.117Z,41.07
2019-06-08T05:11:43.147Z,42.27
2019-06-08T05:14:15.739Z,41.80
2019-06-08T05:16:49.727Z,41.93
2019-06-08T05:19:23.154Z,40.93
2019-06-08T05:21:55.835Z,38.50
2019-06-08T05:24:28.327Z,44.53
2019-06-08T05:27:00.885Z,41.23
2019-06-08T05:29:33.564Z,38.43
2019-06-08T05:32:05.795Z,38.77
2019-06-08T05:34:39.343Z,38.87
2019-06-08T05:37:11.909Z,35.63
2019-06-08T05:39:45.554Z,34.73
2019-06-08T05:42:18.023Z,34.60
2019-06-08T05:44:50.672Z,34.83
2019-06-08T05:47:23.450Z,32.40
2019-06-08T05:49:56.225Z,33.83
2019-06-08T05:52:28.908Z,38.03
2019-06-08T05:55:01.896Z,41.87
2019-06-08T05:57:35.292Z,37.73
2019-06-08T06:00:13.025Z,34.73
2019-06-08T06:02:46.970Z,39.00
2019-06-08T06:05:19.983Z,38.63
2019-06-08T06:07:52.876Z,42.83
2019-06-08T06:10:26.907Z,40.77
2019-06-08T06:12:59.463Z,38.73
2019-06-08T06:15:32.442Z,38.23
2019-06-08T06:18:04.681Z,35.57
2019-06-08T06:20:37.901Z,40.10
2019-06-08T06:23:10.601Z,39.10
2019-06-08T06:25:43.419Z,39.40
2019-06-08T06:28:16.350Z,37.23
2019-06-08T06:30:50.105Z,36.17
2019-06-08T06:33:23.246Z,35.40
2019-06-08T06:35:55.923Z,30.97
2019-06-08T06:38:28.599Z,36.33
2019-06-08T06:41:00.986Z,30.73
2019-06-08T06:43:34.574Z,32.57
2019-06-08T06:46:07.354Z,33.97
2019-06-08T06:48:39.965Z,31.10
2019-06-08T06:51:25.273Z,31.30
2019-06-08T06:53:46.601Z,28.50
2019-06-08T06:56:19.303Z,31.43
2019-06-08T06:58:51.982Z,30.37
2019-06-08T07:01:24.665Z,28.10
2019-06-08T07:03:57.599Z,30.93
2019-06-08T07:06:30.350Z,32.27
2019-06-08T07:09:03.009Z,34.30
2019-06-08T07:11:36.007Z,28.77
2019-06-08T07:14:08.977Z,33.27
2019-06-08T07:16:41.575Z,28.03
2019-06-08T07:19:14.339Z,31.37
2019-06-08T07:21:48.291Z,33.70
2019-06-08T07:24:21.746Z,27.33
2019-06-08T07:26:54.643Z,34.33
2019-06-08T07:29:27.319Z,32.43
2019-06-08T07:31:59.991Z,30.50
2019-06-08T07:34:32.873Z,28.30
2019-06-08T07:37:05.604Z,27.37
2019-06-08T07:39:38.550Z,27.83
2019-06-08T07:42:11.320Z,25.83
2019-06-08T07:44:44.408Z,26.47
2019-06-08T07:47:17.290Z,25.90
2019-06-08T07:49:51.137Z,27.50
2019-06-08T07:52:23.879Z,22.67
2019-06-08T07:54:56.966Z,21.67
2019-06-08T07:57:29.751Z,23.17
2019-06-08T08:00:09.122Z,23.27
2019-06-08T08:02:37.259Z,24.37
2019-06-08T08:05:10.291Z,23.63
2019-06-08T08:07:43.026Z,26.97
2019-06-08T08:10:16.503Z,24.23
2019-06-08T08:12:49.314Z,21.57
2019-06-08T08:15:23.319Z,22.07
2019-06-08T08:17:57.673Z,21.30
2019-06-08T08:20:30.931Z,20.80
2019-06-08T08:23:06.195Z,18.70
2019-06-08T08:25:38.017Z,20.30
2019-06-08T08:28:10.917Z,19.70
2019-06-08T08:30:43.794Z,16.47
2019-06-08T08:33:18.435Z,17.63
2019-06-08T08:35:52.212Z,17.80
2019-06-08T08:38:27.315Z,12.37
2019-06-08T08:41:06.857Z,11.57
2019-06-08T08:43:34.769Z,8.87
2019-06-08T08:46:07.764Z,13.37
2019-06-08T08:48:40.744Z,10.53
2019-06-08T08:51:13.730Z,8.90
2019-06-08T08:53:48.140Z,6.40
2019-06-08T08:56:21.138Z,6.40
2019-06-08T08:58:56.559Z,5.73
2019-06-08T09:01:29.364Z,6.40
2019-06-08T09:04:04.979Z,7.43
2019-06-08T09:06:38.090Z,4.00
2019-06-08T09:09:10.642Z,5.60
2019-06-08T09:11:43.893Z,3.90
2019-06-08T09:14:18.635Z,4.03
2019-06-08T09:16:52.649Z,5.13
2019-06-08T09:19:27.906Z,4.97
2019-06-08T09:22:02.734Z,4.23
2019-06-08T09:24:38.792Z,4.07
2019-06-08T09:27:11.926Z,4.03
2019-06-08T09:29:44.717Z,2.57
2019-06-08T09:32:18.012Z,5.23
2019-06-08T09:34:52.923Z,2.60
2019-06-08T09:37:25.301Z,2.27
2019-06-08T09:39:58.979Z,3.67
2019-06-08T09:42:32.069Z,3.33
2019-06-08T09:45:11.919Z,8.23
2019-06-08T09:47:44.582Z,3.90
2019-06-08T09:50:18.675Z,8.07
2019-06-08T09:53:06.022Z,6.40
2019-06-08T09:55:25.365Z,6.30
2019-06-08T09:58:01.954Z,7.53
2019-06-08T10:00:32.281Z,3.93
2019-06-08T10:03:07.132Z,3.70
2019-06-08T10:05:39.798Z,2.77
2019-06-08T10:08:12.476Z,2.60
2019-06-08T10:10:45.159Z,4.50
2019-06-08T10:13:18.979Z,2.40
2019-06-08T10:15:51.863Z,1.97
2019-06-08T10:18:24.794Z,4.07
2019-06-08T10:21:00.662Z,2.90
2019-06-08T10:23:34.644Z,2.70
2019-06-08T10:26:06.787Z,3.30
2019-06-08T10:28:39.646Z,1.70
2019-06-08T10:31:12.326Z,1.57
2019-06-08T10:33:48.021Z,2.60
2019-06-08T10:36:19.630Z,2.20
2019-06-08T10:38:52.302Z,2.70
2019-06-08T10:41:27.655Z,1.50
2019-06-08T10:43:59.344Z,1.73
2019-06-08T10:46:31.980Z,2.53
2019-06-08T10:49:08.477Z,2.63
2019-06-08T10:51:40.805Z,4.33
2019-06-08T10:54:14.223Z,2.10
2019-06-08T10:56:48.564Z,3.03
2019-06-08T10:59:21.108Z,4.30
2019-06-08T11:01:54.109Z,2.60
2019-06-08T11:04:28.692Z,1.83
2019-06-08T11:07:07.216Z,2.57
2019-06-08T11:09:35.258Z,2.83
2019-06-08T11:12:14.328Z,3.23
2019-06-08T11:14:41.716Z,3.37
2019-06-08T11:17:14.379Z,2.17
2019-06-08T11:19:48.036Z,3.67
2019-06-08T11:22:20.858Z,1.93
2019-06-08T11:24:53.565Z,4.20
2019-06-08T11:27:28.538Z,1.97
2019-06-08T11:30:01.745Z,2.90
2019-06-08T11:32:34.418Z,1.57
2019-06-08T11:35:12.348Z,3.30
2019-06-08T11:37:45.245Z,2.53
2019-06-08T11:40:20.769Z,2.67
2019-06-08T11:42:54.998Z,3.67
2019-06-08T11:45:27.689Z,2.60
2019-06-08T11:48:00.545Z,1.67
2019-06-08T11:50:42.095Z,1.70
2019-06-08T11:53:17.846Z,1.47
2019-06-08T11:55:51.069Z,5.63
2019-06-08T11:58:28.325Z,4.40
2019-06-08T12:01:10.024Z,3.77
2019-06-08T12:03:39.803Z,4.43
2019-06-08T12:06:14.215Z,1.90
2019-06-08T12:08:47.323Z,1.67
2019-06-08T12:11:22.995Z,2.57
2019-06-08T12:13:54.800Z,3.40
2019-06-08T12:16:28.296Z,3.20
2019-06-08T12:19:01.822Z,2.10
2019-06-08T12:21:34.522Z,2.40
2019-06-08T12:24:08.273Z,1.97
2019-06-08T12:26:40.884Z,2.87
2019-06-08T12:29:14.978Z,2.70
2019-06-08T12:31:47.863Z,2.93
2019-06-08T12:34:20.120Z,3.90
2019-06-08T12:36:53.313Z,3.60
2019-06-08T12:39:28.174Z,3.67
2019-06-08T12:42:00.626Z,4.70
2019-06-08T12:44:33.309Z,6.07
2019-06-08T12:47:07.981Z,1.87
2019-06-08T12:49:40.494Z,2.10
2019-06-08T12:52:14.514Z,2.07
2019-06-08T12:54:59.297Z,4.47
2019-06-08T12:57:22.173Z,3.37
2019-06-08T12:59:54.893Z,2.80
2019-06-08T13:02:28.088Z,5.00
2019-06-08T13:05:00.923Z,2.43
2019-06-08T13:07:34.253Z,2.00
2019-06-08T13:10:08.859Z,2.10
2019-06-08T13:12:41.686Z,2.83
2019-06-08T13:15:14.769Z,5.07
2019-06-08T13:17:47.783Z,2.50
2019-06-08T13:20:23.249Z,2.47
2019-06-08T13:22:57.567Z,3.80
2019-06-08T13:25:39.659Z,2.53
2019-06-08T13:28:04.398Z,4.67
2019-06-08T13:30:39.012Z,3.80
2019-06-08T13:33:12.009Z,2.30
2019-06-08T13:35:47.827Z,2.73
2019-06-08T13:38:21.750Z,13.90
2019-06-08T13:40:53.738Z,3.50
2019-06-08T13:43:26.427Z,3.20
2019-06-08T13:45:59.095Z,3.67
2019-06-08T13:48:31.800Z,2.00
2019-06-08T13:51:04.467Z,1.97
2019-06-08T13:53:38.310Z,1.97
2019-06-08T13:56:11.159Z,1.73
2019-06-08T13:58:43.830Z,2.30
2019-06-08T14:01:17.656Z,2.73
2019-06-08T14:03:50.837Z,4.40
2019-06-08T14:06:24.902Z,2.90
2019-06-08T14:08:58.962Z,3.40
2019-06-08T14:11:31.631Z,2.40
2019-06-08T14:14:04.316Z,2.70
2019-06-08T14:16:38.922Z,2.03
2019-06-08T14:19:11.299Z,4.63
2019-06-08T14:21:44.002Z,2.03
2019-06-08T14:24:24.105Z,2.40
2019-06-08T14:26:53.242Z,3.40
2019-06-08T14:29:28.977Z,2.00
2019-06-08T14:32:01.463Z,1.73
2019-06-08T14:34:34.142Z,5.43
2019-06-08T14:37:08.638Z,7.80
2019-06-08T14:39:41.131Z,2.77
2019-06-08T14:42:13.591Z,2.40
2019-06-08T14:44:47.934Z,5.70
2019-06-08T14:47:20.942Z,3.37
2019-06-08T14:49:53.909Z,2.80
2019-06-08T14:52:29.718Z,3.00
2019-06-08T14:55:00.904Z,1.93
2019-06-08T14:57:33.587Z,1.63
2019-06-08T15:00:12.193Z,2.33
2019-06-08T15:02:43.029Z,1.33
2019-06-08T15:05:19.451Z,4.63
2019-06-08T15:07:51.158Z,4.37
2019-06-08T15:10:23.839Z,3.87
2019-06-08T15:12:57.745Z,2.93
2019-06-08T15:15:32.188Z,3.03
2019-06-08T15:18:07.796Z,2.63
2019-06-08T15:20:39.564Z,2.40
2019-06-08T15:23:12.245Z,1.50
2019-06-08T15:25:45.033Z,3.17
2019-06-08T15:28:18.212Z,2.47
2019-06-08T15:30:51.205Z,5.73
2019-06-08T15:33:24.895Z,2.50
2019-06-08T15:35:57.697Z,2.77
2019-06-08T15:38:32.417Z,3.10
2019-06-08T15:41:04.681Z,1.87
2019-06-08T15:43:39.576Z,3.10
2019-06-08T15:46:11.170Z,2.27
2019-06-08T15:48:43.766Z,3.60
2019-06-08T15:51:16.425Z,2.50
2019-06-08T15:53:49.109Z,4.03
2019-06-08T15:56:35.591Z,3.77
2019-06-08T15:58:56.002Z,3.03
2019-06-08T16:01:29.403Z,2.43
2019-06-08T16:04:04.155Z,3.03
2019-06-08T16:06:36.505Z,2.27
2019-06-08T16:09:10.466Z,5.27
2019-06-08T16:11:43.094Z,5.10
2019-06-08T16:14:15.822Z,2.93
2019-06-08T16:16:49.380Z,5.07
2019-06-08T16:19:23.423Z,2.93
2019-06-08T16:21:56.167Z,2.60
2019-06-08T16:24:29.771Z,5.47
2019-06-08T16:27:02.747Z,4.43
2019-06-08T16:29:35.431Z,4.40
2019-06-08T16:32:08.325Z,3.03
2019-06-08T16:34:41.038Z,5.53
2019-06-08T16:37:13.714Z,3.17
2019-06-08T16:39:46.354Z,4.63
2019-06-08T16:42:19.021Z,4.90
2019-06-08T16:44:51.916Z,2.73
2019-06-08T16:47:24.587Z,7.40
2019-06-08T16:49:57.282Z,3.70
2019-06-08T16:52:30.374Z,4.17
2019-06-08T16:55:03.045Z,3.47
2019-06-08T16:57:38.296Z,4.33
2019-06-08T17:02:45.390Z,3.00
2019-06-08T17:05:18.066Z,3.77
2019-06-08T17:07:50.336Z,11.70
2019-06-08T17:10:22.999Z,3.63
2019-06-08T17:12:55.682Z,6.17
2019-06-08T17:15:29.840Z,4.30
2019-06-08T17:18:03.223Z,3.60
2019-06-08T17:20:36.303Z,6.93
2019-06-08T17:23:09.068Z,6.00
2019-06-08T17:25:41.954Z,4.77
2019-06-08T17:28:14.625Z,5.47
2019-06-08T17:30:47.314Z,6.20
2019-06-08T17:33:20.005Z,5.63
2019-06-08T17:35:52.677Z,8.67
2019-06-08T17:38:24.942Z,8.13
2019-06-08T17:40:57.611Z,5.30
2019-06-08T17:43:30.307Z,4.60
2019-06-08T17:46:02.971Z,6.23
2019-06-08T17:48:36.468Z,8.63
2019-06-08T17:51:09.358Z,4.07
2019-06-08T17:53:43.254Z,9.30
2019-06-08T17:56:16.361Z,9.77
2019-06-08T17:58:49.042Z,7.03
2019-06-08T18:01:21.724Z,4.83
2019-06-08T18:03:54.402Z,7.77
2019-06-08T18:06:27.237Z,2.73
2019-06-08T18:08:59.961Z,7.37
2019-06-08T18:11:34.183Z,5.43
2019-06-08T18:14:07.445Z,4.87
2019-06-08T18:16:42.166Z,6.17
2019-06-08T18:19:30.341Z,7.63
2019-06-08T18:22:05.823Z,4.17
2019-06-08T18:24:39.439Z,5.73
2019-06-08T18:27:11.967Z,5.20
2019-06-08T18:29:46.100Z,7.63
2019-06-08T18:32:18.536Z,7.33
2019-06-08T18:34:50.758Z,5.23
2019-06-08T18:37:23.398Z,6.87
2019-06-08T18:39:57.854Z,8.17
2019-06-08T18:42:30.285Z,7.30
2019-06-08T18:45:02.971Z,6.03
2019-06-08T18:47:37.581Z,7.20
2019-06-08T18:50:09.542Z,5.03
2019-06-08T18:52:45.342Z,5.90
2019-06-08T18:55:18.550Z,4.77
2019-06-08T18:57:51.320Z,4.40
2019-06-08T19:00:34.630Z,7.03
2019-06-08T19:03:09.049Z,10.87
2019-06-08T19:05:45.657Z,6.43
2019-06-08T19:08:20.228Z,9.70
2019-06-08T19:10:52.913Z,5.50
2019-06-08T19:13:27.116Z,9.40
2019-06-08T19:15:59.986Z,5.50
2019-06-08T19:18:33.288Z,9.40
2019-06-08T19:21:07.737Z,15.03
2019-06-08T19:23:44.882Z,21.63
2019-06-08T19:26:22.889Z,28.57
2019-06-08T23:29:21.232Z,8.27
